Time;durP1;ratioP1;P1;durP2;ratioP2;P2;SDS_P1;SDS_P2;PMS_P1;PMS_P2;Temp;Humidity;BMP_temperature;BMP_pressure;BME280_temperature;BME280_humidity;BME280_pressure;Samples;Min_cycle;Max_cycle;Signal;HPM_P1;HPM_P2
2022/01/27 00:05:33;;;;;;;24.13;12.47;;;2.30;99.90;2.00;101429.00;;;;4991952;27;93716;-70
2022/01/27 00:08:15;;;;;;;26.73;13.00;;;2.30;99.90;2.00;101422.00;;;;4994381;28;92659;-70
2022/01/27 00:13:14;;;;;;;23.47;13.70;;;2.20;99.90;2.00;101419.00;;;;4989391;28;92677;-71
2022/01/27 00:15:41;;;;;;;29.57;14.13;;;2.20;99.90;2.00;101397.00;;;;4975497;28;92878;-71
2022/01/27 00:18:30;;;;;;;28.50;13.17;;;2.30;99.90;2.00;101410.00;;;;4975426;28;93017;-69
2022/01/27 00:20:53;;;;;;;27.43;13.93;;;2.20;99.90;2.00;101416.00;;;;4974880;28;92312;-70
2022/01/27 00:23:19;;;;;;;29.37;13.77;;;2.30;99.90;2.00;101409.00;;;;4954823;28;124425;-72
2022/01/27 00:25:44;;;;;;;34.30;14.73;;;2.20;99.90;2.00;101405.00;;;;4962822;28;121478;-69
2022/01/27 00:28:10;;;;;;;26.13;14.37;;;2.20;99.90;2.00;101401.00;;;;4982867;28;113266;-69
2022/01/27 00:30:38;;;;;;;29.83;14.57;;;2.20;99.90;2.00;101401.00;;;;4994036;28;101136;-70
2022/01/27 00:33:05;;;;;;;28.90;14.33;;;2.30;99.90;2.00;101389.00;;;;4974526;28;102026;-71
2022/01/27 00:35:32;;;;;;;25.73;13.13;;;2.30;99.90;2.00;101379.00;;;;4992414;28;93211;-69
2022/01/27 00:37:59;;;;;;;27.10;14.97;;;2.20;99.90;2.00;101378.00;;;;4993595;28;93040;-70
2022/01/27 00:40:25;;;;;;;24.03;13.07;;;2.20;99.90;2.00;101369.00;;;;4994279;28;92700;-69
2022/01/27 00:42:51;;;;;;;27.67;13.90;;;2.20;99.90;2.00;101363.00;;;;4993282;28;93135;-69
2022/01/27 00:45:17;;;;;;;29.60;14.30;;;2.20;99.90;2.00;101364.00;;;;4993370;28;94148;-70
2022/01/27 00:47:43;;;;;;;28.73;13.50;;;2.20;99.90;2.00;101356.00;;;;4993217;28;98555;-69
2022/01/27 00:50:09;;;;;;;31.63;15.07;;;2.20;99.90;2.00;101361.00;;;;4994045;28;92878;-69
2022/01/27 00:52:42;;;;;;;29.27;12.97;;;2.20;99.90;2.00;101351.00;;;;4992857;28;93555;-69
2022/01/27 00:55:10;;;;;;;24.47;13.27;;;2.20;99.90;2.00;101356.00;;;;4979283;28;94275;-72
2022/01/27 01:00:08;;;;;;;32.33;14.60;;;2.20;99.90;2.00;101362.00;;;;4991183;28;92837;-69
2022/01/27 01:02:48;;;;;;;23.67;14.63;;;2.20;99.90;2.00;101362.00;;;;4993186;28;93149;-73
2022/01/27 01:05:53;;;;;;;30.00;14.77;;;2.30;99.90;2.00;101361.00;;;;4970070;28;95025;-70
2022/01/27 01:14:19;;;;;;;24.83;12.87;;;2.20;99.90;2.00;101352.00;;;;4970127;28;92915;-72
2022/01/27 01:19:32;;;;;;;26.87;13.00;;;2.20;99.90;1.90;101346.00;;;;4955317;27;95358;-71
2022/01/27 01:32:53;;;;;;;25.13;12.37;;;2.10;99.90;1.90;101322.00;;;;4990778;28;92765;-73
2022/01/27 01:35:28;;;;;;;23.47;12.80;;;2.00;99.90;1.90;101321.00;;;;4990764;28;92849;-73
2022/01/27 01:37:56;;;;;;;29.30;13.87;;;2.10;99.90;1.80;101320.00;;;;4975430;28;92985;-73
2022/01/27 01:40:22;;;;;;;31.93;12.70;;;2.10;99.90;1.80;101306.00;;;;4974816;28;92815;-72
2022/01/27 01:42:48;;;;;;;28.23;12.40;;;2.10;99.90;1.80;101310.00;;;;4973785;28;95201;-72
2022/01/27 01:45:17;;;;;;;22.63;11.83;;;2.00;99.90;1.80;101302.00;;;;4990849;28;125363;-72
2022/01/27 01:47:44;;;;;;;23.77;12.53;;;2.10;99.90;1.80;101294.00;;;;4991834;28;94644;-73
2022/01/27 01:50:12;;;;;;;24.23;11.50;;;2.10;99.90;1.90;101283.00;;;;4974552;28;93190;-72
2022/01/27 01:52:38;;;;;;;19.77;11.37;;;2.10;99.90;1.90;101289.00;;;;4964584;28;92917;-73
2022/01/27 01:55:06;;;;;;;30.30;12.83;;;2.10;99.90;1.90;101283.00;;;;4992677;28;93619;-71
2022/01/27 01:57:32;;;;;;;24.27;12.30;;;2.20;99.90;1.90;101287.00;;;;5002364;27;105484;-72
2022/01/27 01:59:59;;;;;;;23.47;11.77;;;2.20;99.90;1.90;101276.00;;;;5012989;27;96899;-71
2022/01/27 02:02:30;;;;;;;22.67;11.40;;;2.20;99.90;1.90;101272.00;;;;5012585;27;102265;-71
2022/01/27 02:04:56;;;;;;;30.90;12.40;;;2.10;99.90;1.90;101268.00;;;;5010955;27;122784;-72
2022/01/27 02:07:40;;;;;;;30.63;12.07;;;2.20;99.90;1.90;101263.00;;;;4992702;27;121798;-71
2022/01/27 02:10:36;;;;;;;23.83;11.53;;;2.10;99.90;1.90;101274.00;;;;4977975;27;94551;-72
2022/01/27 02:18:30;;;;;;;19.40;10.20;;;2.10;99.90;1.90;101267.00;;;;4990484;27;92875;-73
2022/01/27 02:20:56;;;;;;;21.00;11.07;;;2.10;99.90;1.90;101260.00;;;;4973715;28;113295;-71
2022/01/27 02:23:22;;;;;;;23.47;10.73;;;2.20;99.90;1.80;101263.00;;;;5003112;27;109223;-72
2022/01/27 02:25:47;;;;;;;23.40;11.63;;;2.10;99.90;1.90;101262.00;;;;5012045;27;94014;-72
2022/01/27 02:28:13;;;;;;;25.73;12.17;;;2.20;99.90;1.80;101251.00;;;;5010487;27;123470;-73
2022/01/27 02:30:39;;;;;;;23.10;12.33;;;2.10;99.90;1.90;101266.00;;;;4981995;28;92973;-74
2022/01/27 02:33:05;;;;;;;25.70;11.03;;;2.10;99.90;1.90;101252.00;;;;5008924;27;92677;-71
2022/01/27 02:35:33;;;;;;;23.30;10.27;;;2.20;99.90;1.80;101247.00;;;;5010653;27;124541;-73
2022/01/27 02:38:00;;;;;;;28.60;11.13;;;2.10;99.90;1.80;101250.00;;;;5011160;27;107791;-73
2022/01/27 02:40:43;;;;;;;24.37;10.83;;;2.10;99.90;1.80;101244.00;;;;5007117;27;93042;-72
2022/01/27 02:43:09;;;;;;;25.20;9.80;;;2.10;99.90;1.80;101240.00;;;;4981480;28;92957;-71
2022/01/27 02:46:00;;;;;;;17.40;10.90;;;2.30;99.90;1.80;101230.00;;;;4992553;27;93154;-71
2022/01/27 02:48:26;;;;;;;18.77;10.23;;;2.10;99.90;1.80;101228.00;;;;4972375;28;92933;-72
2022/01/27 02:50:52;;;;;;;21.03;11.00;;;2.00;99.90;1.80;101219.00;;;;4992079;27;93679;-72
2022/01/27 02:53:17;;;;;;;20.80;10.53;;;2.00;99.90;1.80;101213.00;;;;4991356;28;108049;-71
2022/01/27 02:55:43;;;;;;;23.57;11.67;;;2.10;99.90;1.80;101207.00;;;;4992258;27;122371;-71
2022/01/27 02:58:10;;;;;;;23.17;10.70;;;2.00;99.90;1.80;101220.00;;;;4992258;27;101390;-73
2022/01/27 03:00:36;;;;;;;21.17;9.80;;;2.00;99.90;1.70;101209.00;;;;4991447;28;93746;-74
2022/01/27 03:03:01;;;;;;;25.77;12.13;;;2.00;99.90;1.70;101204.00;;;;4973285;28;92855;-75
2022/01/27 03:05:27;;;;;;;28.37;10.80;;;2.00;99.90;1.70;101207.00;;;;4973427;28;93263;-72
2022/01/27 03:07:53;;;;;;;23.20;11.30;;;2.00;99.90;1.70;101206.00;;;;4991007;27;93380;-74
2022/01/27 03:10:20;;;;;;;25.47;10.90;;;2.00;99.90;1.70;101199.00;;;;4999470;27;110871;-75
2022/01/27 03:12:49;;;;;;;22.10;10.70;;;2.00;99.90;1.70;101202.00;;;;4991515;28;92738;-74
2022/01/27 03:15:15;;;;;;;19.47;10.13;;;2.10;99.90;1.70;101196.00;;;;4991907;27;93149;-72
2022/01/27 03:17:41;;;;;;;16.53;8.93;;;1.40;99.90;1.70;101187.00;;;;4990927;28;95163;-72
2022/01/27 03:20:09;;;;;;;13.83;8.93;;;2.00;99.90;1.70;101208.00;;;;4997491;27;93011;-72
2022/01/27 03:22:35;;;;;;;15.43;8.67;;;1.90;99.90;1.70;101185.00;;;;4985331;27;92934;-72
2022/01/27 03:25:02;;;;;;;21.20;9.67;;;1.90;99.90;1.70;101185.00;;;;5011736;27;94206;-73
2022/01/27 03:27:28;;;;;;;20.73;10.17;;;2.00;99.90;1.70;101199.00;;;;4990339;27;94393;-73
2022/01/27 03:29:54;;;;;;;23.80;9.40;;;2.00;99.90;1.70;101180.00;;;;4990608;28;93207;-72
2022/01/27 03:32:20;;;;;;;19.17;9.23;;;2.00;99.90;1.70;101160.00;;;;4991656;28;92947;-70
2022/01/27 03:34:47;;;;;;;15.57;9.13;;;2.10;99.90;1.70;101155.00;;;;4973692;28;93231;-70
2022/01/27 03:37:12;;;;;;;16.07;8.60;;;2.00;99.90;1.70;101152.00;;;;4973593;28;93173;-72
2022/01/27 03:39:40;;;;;;;18.90;9.87;;;2.50;99.90;1.70;101132.00;;;;4993086;27;93175;-71
2022/01/27 03:42:07;;;;;;;18.33;10.40;;;1.90;99.90;1.70;101119.00;;;;4992589;28;91998;-71
2022/01/27 03:44:34;;;;;;;16.93;9.20;;;1.90;99.90;1.70;101102.00;;;;4973099;27;93326;-71
2022/01/27 03:47:00;;;;;;;18.70;9.43;;;1.80;99.90;1.70;101109.00;;;;4992020;27;122745;-71
2022/01/27 03:49:26;;;;;;;22.60;10.93;;;1.90;99.90;1.70;101115.00;;;;4980455;28;94065;-70
2022/01/27 03:51:52;;;;;;;17.97;9.13;;;1.90;99.90;1.70;101124.00;;;;5008386;27;93042;-71
2022/01/27 03:54:18;;;;;;;19.00;10.33;;;1.90;99.90;1.70;101129.00;;;;4992735;27;94113;-70
2022/01/27 03:56:44;;;;;;;19.13;10.07;;;1.90;99.90;1.70;101109.00;;;;5010460;27;102694;-72
2022/01/27 03:59:10;;;;;;;20.80;10.37;;;2.00;99.90;1.60;101095.00;;;;5010950;27;112270;-72
2022/01/27 04:01:37;;;;;;;20.47;9.30;;;1.90;99.90;1.70;101093.00;;;;5012003;27;93087;-72
2022/01/27 04:04:03;;;;;;;18.83;9.53;;;2.00;99.90;1.70;101086.00;;;;4985274;28;92936;-70
2022/01/27 04:06:34;;;;;;;20.80;10.33;;;1.80;99.90;1.70;101076.00;;;;4991639;28;93698;-71
2022/01/27 04:09:03;;;;;;;18.33;9.40;;;1.90;99.90;1.70;101062.00;;;;4991211;27;92539;-71
2022/01/27 04:11:30;;;;;;;20.10;10.53;;;1.90;99.90;1.70;101060.00;;;;4988261;28;92904;-71
2022/01/27 04:13:56;;;;;;;20.20;9.93;;;2.00;99.90;1.70;101042.00;;;;4989393;28;104417;-70
2022/01/27 04:16:22;;;;;;;19.23;10.67;;;1.90;99.90;1.70;101054.00;;;;4985227;28;94284;-70
2022/01/27 04:18:48;;;;;;;23.03;11.07;;;2.00;99.90;1.70;101047.00;;;;4991527;28;95670;-69
2022/01/27 04:21:14;;;;;;;26.53;10.77;;;2.00;99.90;1.70;101065.00;;;;4991418;28;92836;-69
2022/01/27 04:23:40;;;;;;;18.83;9.90;;;2.00;99.90;1.70;101067.00;;;;4955246;28;95539;-69
2022/01/27 04:26:07;;;;;;;19.23;9.80;;;2.10;99.90;1.80;101061.00;;;;4991098;27;93463;-71
2022/01/27 04:28:35;;;;;;;24.93;10.57;;;2.10;99.90;1.80;101067.00;;;;4983289;28;92849;-70
2022/01/27 04:31:05;;;;;;;18.63;8.70;;;2.00;99.90;1.80;101061.00;;;;4991532;27;92365;-70
2022/01/27 04:33:34;;;;;;;16.30;9.07;;;2.40;99.90;1.80;101048.00;;;;4982274;28;95507;-71
2022/01/27 04:36:05;;;;;;;18.50;9.63;;;2.20;99.90;1.80;101057.00;;;;4997704;27;93738;-69
2022/01/27 04:38:38;;;;;;;13.03;8.13;;;2.10;99.90;1.90;101048.00;;;;4990740;28;93715;-69
2022/01/27 04:41:33;;;;;;;19.53;10.07;;;2.10;99.90;1.90;101061.00;;;;4993524;27;92926;-70
2022/01/27 04:44:11;;;;;;;20.20;9.70;;;1.50;99.90;1.80;101055.00;;;;5013460;27;92909;-69
2022/01/27 04:46:45;;;;;;;16.37;9.43;;;2.10;99.90;1.80;101029.00;;;;4995890;27;93863;-69
2022/01/27 04:49:12;;;;;;;21.23;8.80;;;2.20;99.90;1.80;101015.00;;;;5011786;27;92805;-69
2022/01/27 04:51:37;;;;;;;14.87;8.97;;;2.10;99.90;1.90;101013.00;;;;5015224;27;93311;-69
2022/01/27 04:54:10;;;;;;;25.53;9.77;;;2.10;99.90;1.90;101019.00;;;;5014747;27;93174;-68
2022/01/27 04:56:38;;;;;;;18.87;10.33;;;2.10;99.90;1.90;101021.00;;;;4995996;27;93393;-68
2022/01/27 04:59:11;;;;;;;24.03;10.23;;;2.10;99.90;1.90;101029.00;;;;4994191;28;92978;-69
2022/01/27 05:01:46;;;;;;;18.70;9.80;;;2.20;99.90;1.90;101030.00;;;;4975563;28;92971;-70
2022/01/27 05:04:16;;;;;;;37.03;13.00;;;2.20;99.90;1.90;101034.00;;;;4976762;28;93926;-68
2022/01/27 05:06:41;;;;;;;25.40;13.43;;;2.10;99.90;1.90;101035.00;;;;4993483;28;93174;-68
2022/01/27 05:09:07;;;;;;;25.13;11.10;;;2.20;99.90;1.90;101028.00;;;;4994207;28;92983;-69
2022/01/27 05:11:43;;;;;;;21.27;11.53;;;2.20;99.90;2.00;101028.00;;;;4994808;27;98299;-69
2022/01/27 05:14:19;;;;;;;22.50;11.33;;;2.20;99.90;2.00;101037.00;;;;5013451;27;93581;-68
2022/01/27 05:16:45;;;;;;;31.87;12.47;;;2.20;99.90;2.00;101019.00;;;;5010611;27;92759;-68
2022/01/27 05:19:10;;;;;;;27.73;12.80;;;2.20;99.90;2.00;101022.00;;;;4993627;28;93030;-68
2022/01/27 05:21:37;;;;;;;31.27;13.47;;;1.70;99.90;2.00;101023.00;;;;4993631;27;102681;-68
2022/01/27 05:24:04;;;;;;;20.03;11.83;;;2.20;99.90;2.00;101010.00;;;;4993515;27;93800;-68
2022/01/27 05:26:30;;;;;;;24.07;12.10;;;2.30;99.90;2.00;101005.00;;;;5004460;27;96804;-68
2022/01/27 05:28:56;;;;;;;20.33;10.57;;;2.20;99.90;2.00;100985.00;;;;4978563;28;93967;-68
2022/01/27 05:31:22;;;;;;;30.63;13.70;;;2.20;99.90;2.00;100996.00;;;;4988095;28;109158;-69
2022/01/27 05:33:48;;;;;;;25.17;11.50;;;2.20;99.90;2.00;100993.00;;;;5009408;27;122274;-67
2022/01/27 05:36:14;;;;;;;23.43;13.27;;;2.30;99.90;2.00;101006.00;;;;5012518;27;121738;-68
2022/01/27 05:38:40;;;;;;;29.13;11.70;;;2.30;99.90;2.00;100985.00;;;;4993814;27;113182;-67
2022/01/27 05:41:06;;;;;;;21.17;11.13;;;2.30;99.90;2.00;101007.00;;;;5013978;27;92761;-68
2022/01/27 05:43:32;;;;;;;32.13;14.20;;;2.30;99.90;2.00;100995.00;;;;5002733;27;93972;-68
2022/01/27 05:45:58;;;;;;;29.57;12.80;;;2.20;99.90;2.00;101000.00;;;;5000509;27;92967;-67
2022/01/27 05:48:24;;;;;;;24.60;12.83;;;2.30;99.90;2.10;100985.00;;;;5004817;27;92841;-68
2022/01/27 05:50:50;;;;;;;23.50;11.57;;;2.30;99.90;2.10;100989.00;;;;5002180;27;92772;-67
2022/01/27 05:53:16;;;;;;;19.97;10.70;;;2.30;99.90;2.10;100991.00;;;;5006533;27;123242;-68
2022/01/27 05:55:42;;;;;;;22.07;11.90;;;2.30;99.90;2.10;100976.00;;;;5009267;27;123456;-69
2022/01/27 05:58:07;;;;;;;24.67;12.87;;;2.40;99.90;2.10;100978.00;;;;4982676;27;92972;-68
2022/01/27 06:00:34;;;;;;;20.33;11.87;;;2.40;99.90;2.20;100976.00;;;;5008124;27;92728;-68
2022/01/27 06:02:59;;;;;;;28.50;13.17;;;2.30;99.90;2.20;100982.00;;;;5009374;27;97972;-69
2022/01/27 06:05:26;;;;;;;24.43;11.70;;;2.50;99.90;2.20;100983.00;;;;4996000;27;92695;-69
2022/01/27 06:07:52;;;;;;;31.60;12.77;;;2.40;99.90;2.20;100988.00;;;;4992863;28;92847;-68
2022/01/27 06:10:19;;;;;;;20.43;10.23;;;2.40;99.90;2.20;100985.00;;;;4993576;27;92233;-67
2022/01/27 06:12:56;;;;;;;23.23;10.63;;;2.40;99.90;2.20;100985.00;;;;5007401;27;93029;-68
2022/01/27 06:15:23;;;;;;;25.23;12.00;;;2.40;99.90;2.30;100993.00;;;;5012059;27;93514;-68
2022/01/27 06:17:49;;;;;;;24.30;11.10;;;2.50;99.90;2.30;100973.00;;;;5011984;27;93841;-68
2022/01/27 06:20:16;;;;;;;31.90;10.97;;;2.50;99.90;2.30;100969.00;;;;5013090;27;92873;-68
2022/01/27 06:22:43;;;;;;;22.57;10.93;;;2.50;99.90;2.30;100966.00;;;;5012444;27;94431;-69
2022/01/27 06:25:10;;;;;;;20.30;11.17;;;2.50;99.90;2.30;100965.00;;;;5012244;27;92738;-68
2022/01/27 06:27:36;;;;;;;22.43;10.50;;;2.60;99.90;2.30;100966.00;;;;5005117;27;93248;-68
2022/01/27 06:30:05;;;;;;;22.87;9.90;;;2.60;99.90;2.30;100958.00;;;;4993478;27;92821;-67
2022/01/27 06:32:32;;;;;;;28.67;12.13;;;2.60;99.90;2.40;100958.00;;;;4979473;27;92910;-69
2022/01/27 06:34:58;;;;;;;18.30;9.60;;;2.60;99.90;2.40;100947.00;;;;5013223;27;94108;-69
2022/01/27 06:37:24;;;;;;;24.80;12.23;;;2.60;99.90;2.40;100939.00;;;;4993182;27;113085;-69
2022/01/27 06:39:52;;;;;;;15.60;8.83;;;2.60;99.90;2.40;100942.00;;;;5009986;27;108108;-69
2022/01/27 06:42:18;;;;;;;20.70;12.20;;;2.70;99.90;2.40;100933.00;;;;5012029;27;94898;-69
2022/01/27 06:44:44;;;;;;;19.67;10.23;;;2.70;99.90;2.40;100933.00;;;;5011740;27;110008;-69
2022/01/27 06:47:10;;;;;;;14.13;8.60;;;2.70;99.90;2.40;100928.00;;;;5006291;27;98048;-69
2022/01/27 06:49:36;;;;;;;16.67;9.43;;;2.70;99.90;2.50;100928.00;;;;4994278;27;94436;-69
2022/01/27 06:52:02;;;;;;;22.10;11.27;;;2.70;99.90;2.50;100902.00;;;;4991339;28;123805;-70
2022/01/27 06:54:27;;;;;;;22.40;9.60;;;2.70;99.90;2.50;100914.00;;;;4957742;27;93726;-69
2022/01/27 06:56:54;;;;;;;17.43;9.70;;;2.70;99.90;2.50;100909.00;;;;5009268;27;110961;-69
2022/01/27 06:59:20;;;;;;;17.53;9.57;;;2.60;99.90;2.50;100915.00;;;;4994058;27;92072;-69
2022/01/27 07:01:45;;;;;;;27.90;9.50;;;2.70;99.90;2.50;100906.00;;;;4992169;27;123725;-69
2022/01/27 07:04:11;;;;;;;20.37;8.93;;;2.70;99.90;2.50;100879.00;;;;5010048;27;122759;-69
2022/01/27 07:06:39;;;;;;;14.50;7.53;;;2.70;99.90;2.50;100895.00;;;;4974026;28;110592;-69
2022/01/27 07:09:04;;;;;;;19.63;9.63;;;2.70;99.90;2.50;100878.00;;;;4973953;28;92755;-69
2022/01/27 07:11:30;;;;;;;22.80;11.23;;;2.80;99.90;2.50;100892.00;;;;4990027;27;111210;-68
2022/01/27 07:13:56;;;;;;;15.13;8.73;;;2.70;99.90;2.50;100891.00;;;;5010809;27;104826;-69
2022/01/27 07:16:22;;;;;;;18.83;8.90;;;2.70;99.90;2.60;100870.00;;;;5012269;27;92835;-69
2022/01/27 07:18:48;;;;;;;20.07;9.23;;;2.80;99.90;2.60;100897.00;;;;5012612;27;93248;-69
2022/01/27 07:21:13;;;;;;;18.17;9.00;;;2.80;99.90;2.60;100887.00;;;;4996485;27;93234;-69
2022/01/27 07:23:39;;;;;;;10.43;8.27;;;2.80;99.90;2.60;100884.00;;;;4992231;27;121093;-69
2022/01/27 07:26:05;;;;;;;16.63;8.60;;;2.80;99.90;2.60;100867.00;;;;5001488;27;98546;-69
2022/01/27 07:28:31;;;;;;;12.93;8.20;;;2.80;99.90;2.60;100870.00;;;;5010282;27;92908;-70
2022/01/27 07:30:56;;;;;;;14.63;7.33;;;2.80;99.90;2.70;100867.00;;;;5010512;27;123480;-69
2022/01/27 07:33:22;;;;;;;19.07;7.40;;;2.90;99.90;2.70;100871.00;;;;5000684;27;122674;-68
2022/01/27 07:35:48;;;;;;;13.37;7.90;;;2.90;99.90;2.70;100870.00;;;;4991646;28;109917;-69
2022/01/27 07:38:14;;;;;;;18.53;8.27;;;3.00;99.90;2.70;100880.00;;;;4992670;28;93209;-69
2022/01/27 07:40:39;;;;;;;11.63;7.17;;;2.90;99.90;2.70;100885.00;;;;4992108;27;96601;-70
2022/01/27 07:43:05;;;;;;;13.20;7.63;;;2.90;99.90;2.70;100884.00;;;;4991173;28;93886;-70
2022/01/27 07:45:31;;;;;;;15.00;7.17;;;3.00;99.90;2.70;100890.00;;;;4966940;28;111164;-71
2022/01/27 07:47:57;;;;;;;10.67;7.47;;;2.90;99.90;2.70;100884.00;;;;4991875;28;92120;-71
2022/01/27 07:50:28;;;;;;;21.57;8.67;;;2.90;99.90;2.70;100901.00;;;;4989542;27;95470;-70
2022/01/27 07:52:54;;;;;;;16.37;9.20;;;2.90;99.90;2.80;100900.00;;;;4973281;28;92961;-71
2022/01/27 07:55:20;;;;;;;17.50;8.23;;;2.90;99.90;2.80;100897.00;;;;4993093;27;93893;-70
2022/01/27 07:57:45;;;;;;;11.77;7.37;;;3.00;99.90;2.80;100901.00;;;;4992199;27;107850;-71
2022/01/27 08:00:12;;;;;;;14.47;8.03;;;3.00;99.90;2.80;100894.00;;;;4991659;27;94237;-70
2022/01/27 08:02:38;;;;;;;18.03;8.80;;;3.00;99.90;2.80;100874.00;;;;4956304;28;94219;-70
2022/01/27 08:05:04;;;;;;;16.33;9.53;;;3.10;99.90;2.80;100877.00;;;;4993315;27;92938;-70
2022/01/27 08:07:30;;;;;;;17.93;8.80;;;3.00;99.90;2.80;100863.00;;;;4991248;28;92862;-70
2022/01/27 08:09:56;;;;;;;11.50;7.23;;;3.00;99.90;2.80;100872.00;;;;4972724;28;110579;-70
2022/01/27 08:12:21;;;;;;;20.60;9.77;;;3.00;99.90;2.80;100863.00;;;;4997644;27;123107;-70
2022/01/27 08:14:47;;;;;;;16.53;8.67;;;3.10;99.90;2.90;100854.00;;;;5012239;27;110607;-69
2022/01/27 08:17:14;;;;;;;13.93;7.70;;;3.10;99.90;2.90;100854.00;;;;5003087;27;109941;-70
2022/01/27 08:19:39;;;;;;;17.03;8.13;;;3.10;99.90;2.90;100834.00;;;;4995401;27;95102;-69
2022/01/27 08:22:07;;;;;;;15.10;7.53;;;3.10;99.90;2.90;100831.00;;;;4994468;28;123067;-69
2022/01/27 08:24:33;;;;;;;12.53;8.10;;;3.20;99.90;2.90;100826.00;;;;4995076;27;92572;-69
2022/01/27 08:27:03;;;;;;;13.40;8.27;;;3.10;99.90;3.00;100826.00;;;;4994867;27;93117;-69
2022/01/27 08:29:35;;;;;;;13.80;7.20;;;3.10;99.90;3.00;100817.00;;;;4995807;27;92952;-69
2022/01/27 08:32:02;;;;;;;14.43;8.30;;;3.20;99.90;3.00;100828.00;;;;4982144;28;93281;-70
2022/01/27 08:34:35;;;;;;;13.33;7.53;;;3.20;99.90;3.00;100807.00;;;;4995107;27;92894;-69
2022/01/27 08:37:11;;;;;;;20.67;8.20;;;3.30;99.90;3.00;100809.00;;;;4995403;27;91965;-70
2022/01/27 08:39:38;;;;;;;15.30;8.37;;;3.20;99.90;3.10;100809.00;;;;4975152;28;94088;-69
2022/01/27 08:42:05;;;;;;;11.43;7.37;;;3.30;99.90;3.10;100805.00;;;;4994726;28;92876;-69
2022/01/27 08:44:31;;;;;;;15.77;7.60;;;3.30;99.90;3.10;100805.00;;;;4996285;27;93966;-69
2022/01/27 08:46:57;;;;;;;15.10;6.80;;;3.50;99.90;3.20;100808.00;;;;5014099;27;107212;-69
2022/01/27 08:49:26;;;;;;;15.33;7.73;;;3.40;99.90;3.20;100806.00;;;;5012992;27;123489;-68
2022/01/27 08:51:53;;;;;;;12.77;6.93;;;3.40;99.90;3.20;100820.00;;;;5014933;27;93225;-69
2022/01/27 08:54:19;;;;;;;13.43;7.33;;;3.40;99.90;3.20;100820.00;;;;5014317;27;92694;-70
2022/01/27 08:56:45;;;;;;;12.13;7.47;;;3.40;99.90;3.20;100824.00;;;;5006944;27;97644;-68
2022/01/27 08:59:11;;;;;;;14.77;7.13;;;3.40;99.90;3.30;100812.00;;;;5008615;27;99319;-69
2022/01/27 09:01:38;;;;;;;13.70;7.57;;;3.40;99.90;3.20;100793.00;;;;5014784;27;106406;-68
2022/01/27 09:04:04;;;;;;;10.80;6.73;;;3.50;99.90;3.20;100788.00;;;;5010807;27;93131;-69
2022/01/27 09:06:30;;;;;;;13.67;6.87;;;3.40;99.90;3.20;100798.00;;;;4994136;28;108888;-68
2022/01/27 09:08:57;;;;;;;11.80;7.53;;;3.40;99.90;3.20;100790.00;;;;4992725;28;107204;-68
2022/01/27 09:11:23;;;;;;;15.03;7.43;;;3.40;99.90;3.20;100784.00;;;;4993596;27;103277;-68
2022/01/27 09:13:51;;;;;;;13.07;6.63;;;3.40;99.90;3.10;100777.00;;;;5004915;27;92874;-68
2022/01/27 09:16:18;;;;;;;10.70;6.20;;;3.40;99.90;3.10;100785.00;;;;5012850;27;92918;-70
2022/01/27 09:18:44;;;;;;;15.30;6.07;;;3.40;99.90;3.10;100777.00;;;;4995463;27;92975;-69
2022/01/27 09:21:18;;;;;;;15.17;6.60;;;3.40;99.90;3.10;100777.00;;;;5014252;27;95749;-69
2022/01/27 09:23:43;;;;;;;12.03;7.37;;;3.30;99.90;3.10;100772.00;;;;5014932;27;93041;-69
2022/01/27 09:26:26;;;;;;;13.60;7.10;;;3.30;99.90;3.10;100788.00;;;;5012794;27;108727;-69
2022/01/27 09:28:52;;;;;;;12.03;7.30;;;3.30;99.90;3.10;100801.00;;;;5011765;27;93719;-69
2022/01/27 09:31:18;;;;;;;8.30;5.50;;;3.40;99.90;3.10;100806.00;;;;5012837;27;123503;-68
2022/01/27 09:33:43;;;;;;;10.60;7.03;;;3.30;99.90;3.10;100811.00;;;;5013915;27;93739;-68
2022/01/27 09:36:12;;;;;;;14.17;7.20;;;3.30;99.90;3.10;100794.00;;;;5013754;27;109344;-68
2022/01/27 09:38:38;;;;;;;16.90;6.07;;;3.30;99.90;3.00;100779.00;;;;5013622;27;92906;-69
2022/01/27 09:41:07;;;;;;;11.57;6.23;;;3.30;99.90;3.10;100784.00;;;;5001334;27;104669;-68
2022/01/27 09:43:35;;;;;;;9.10;6.70;;;3.20;99.90;3.10;100767.00;;;;4993976;28;92615;-68
2022/01/27 09:46:05;;;;;;;11.33;6.60;;;3.30;99.90;3.10;100782.00;;;;4986457;28;93102;-69
2022/01/27 09:48:37;;;;;;;9.23;5.47;;;3.30;99.90;3.10;100789.00;;;;4993099;28;93944;-69
2022/01/27 09:51:25;;;;;;;10.47;6.67;;;3.30;99.90;3.10;100781.00;;;;4993229;28;94381;-68
2022/01/27 09:53:56;;;;;;;11.83;6.43;;;3.30;99.90;3.10;100774.00;;;;4993805;28;93031;-69
2022/01/27 09:56:24;;;;;;;11.23;7.60;;;3.30;99.90;3.00;100764.00;;;;4994099;27;92967;-68
2022/01/27 09:58:50;;;;;;;12.47;7.60;;;3.30;99.90;2.90;100761.00;;;;4992272;27;95169;-69
2022/01/27 10:01:16;;;;;;;10.47;6.87;;;3.20;99.90;2.80;100762.00;;;;5005700;27;94125;-69
2022/01/27 10:04:14;;;;;;;13.07;5.97;;;3.10;99.90;2.60;100752.00;;;;4991663;28;96074;-69
2022/01/27 10:06:45;;;;;;;10.93;5.47;;;3.00;99.90;2.60;100741.00;;;;4966481;28;108591;-69
2022/01/27 10:09:17;;;;;;;11.73;6.63;;;2.90;99.90;2.60;100748.00;;;;4992931;27;93586;-69
2022/01/27 10:11:49;;;;;;;8.93;5.90;;;2.90;99.90;2.60;100750.00;;;;4993128;27;93807;-69
2022/01/27 10:14:36;;;;;;;9.70;6.37;;;2.80;99.90;2.70;100750.00;;;;4975153;28;92941;-69
2022/01/27 10:17:10;;;;;;;10.10;6.90;;;2.90;99.90;2.70;100764.00;;;;4995741;27;92117;-69
2022/01/27 10:19:36;;;;;;;7.97;5.93;;;3.00;99.90;2.70;100757.00;;;;5012117;27;93072;-69
2022/01/27 10:22:10;;;;;;;11.33;7.03;;;2.90;99.90;2.70;100737.00;;;;5012429;27;123119;-69
2022/01/27 10:24:37;;;;;;;13.77;8.03;;;3.00;99.90;2.70;100747.00;;;;5012724;27;94266;-69
2022/01/27 10:27:34;;;;;;;15.60;6.77;;;3.00;99.90;2.70;100748.00;;;;5013193;27;92787;-70
2022/01/27 10:32:56;;;;;;;15.37;7.03;;;3.00;99.90;2.80;100733.00;;;;5009980;27;93046;-68
2022/01/27 10:35:27;;;;;;;11.40;6.20;;;3.00;99.90;2.80;100740.00;;;;4994676;27;92924;-69
2022/01/27 10:38:03;;;;;;;15.20;6.97;;;2.90;99.90;2.80;100746.00;;;;5009871;27;93031;-69
2022/01/27 10:40:31;;;;;;;7.87;5.53;;;3.00;99.90;2.80;100744.00;;;;4992340;27;100246;-71
2022/01/27 10:43:09;;;;;;;12.30;6.30;;;3.00;99.90;2.80;100734.00;;;;4993076;28;93049;-68
2022/01/27 10:45:38;;;;;;;9.43;5.40;;;3.00;99.90;2.80;100743.00;;;;4993361;27;92784;-70
2022/01/27 10:48:22;;;;;;;10.23;6.63;;;3.00;99.90;2.80;100719.00;;;;4974372;28;93003;-70
2022/01/27 10:50:59;;;;;;;11.33;5.93;;;3.10;99.90;2.80;100725.00;;;;4992875;27;94065;-70
2022/01/27 10:54:42;;;;;;;11.07;6.87;;;3.00;99.90;2.80;100721.00;;;;4992603;28;93999;-70
2022/01/27 10:56:40;;;;;;;9.00;6.40;;;3.10;99.90;2.80;100711.00;;;;4977983;27;93079;-70
2022/01/27 10:59:18;;;;;;;9.73;5.80;;;3.10;99.90;2.80;100716.00;;;;5012616;27;92847;-70
2022/01/27 11:01:48;;;;;;;14.23;6.60;;;3.10;99.90;2.80;100715.00;;;;5012091;27;93881;-69
2022/01/27 11:04:17;;;;;;;13.10;7.13;;;2.80;99.90;2.80;100698.00;;;;5012555;27;93005;-70
2022/01/27 11:06:59;;;;;;;11.77;6.47;;;3.10;99.90;2.80;100702.00;;;;4993424;27;92808;-69
2022/01/27 11:09:27;;;;;;;15.20;7.03;;;3.10;99.90;2.90;100691.00;;;;4980252;28;92144;-69
2022/01/27 11:11:56;;;;;;;11.33;5.87;;;3.10;99.90;2.90;100686.00;;;;4992325;28;92858;-70
2022/01/27 11:14:24;;;;;;;11.40;6.07;;;3.00;99.90;2.90;100685.00;;;;4991656;27;94019;-70
2022/01/27 11:16:51;;;;;;;9.27;5.63;;;3.10;99.90;2.90;100693.00;;;;4990009;28;93806;-70
2022/01/27 11:19:23;;;;;;;11.53;5.83;;;3.20;99.90;3.00;100683.00;;;;4974607;27;93184;-70
2022/01/27 11:21:59;;;;;;;8.63;5.70;;;3.20;99.90;3.00;100672.00;;;;4993993;27;94045;-68
2022/01/27 11:24:43;;;;;;;7.97;6.13;;;3.20;99.90;3.10;100681.00;;;;5010566;27;92852;-69
2022/01/27 11:27:12;;;;;;;8.00;5.03;;;3.20;99.90;3.10;100667.00;;;;4974824;27;92772;-69
2022/01/27 11:29:50;;;;;;;9.60;5.67;;;3.30;99.90;3.20;100664.00;;;;4972587;28;108699;-69
2022/01/27 11:32:27;;;;;;;7.57;5.07;;;3.30;99.90;3.20;100676.00;;;;4974784;27;93351;-68
2022/01/27 11:34:55;;;;;;;11.57;7.07;;;3.40;99.90;3.20;100657.00;;;;4990149;28;93428;-69